Blue Phoenix — 3ENL7 — position and weather

sailwx.info

Track history (hours):
 
Tides and Currents Weather Stations Pressure Air Temp Water Temp Dewpoint Dewpoint Depression Visibility Wind Speed Wind Dir Waves Ship Positions

Blue Phoenix

Last reported at 2018-Jan-07 05:24 UTC. Time now 2018-Jan-21 07:06 UTC.
Position N 33°52' E 134°52'.
Warning: this ship's position is 14 days out of date.

Length 96 m; draft 6.1 m.

Type: Ship (hazmat cat D). MMSI: 353874000.

Date/timePositionNaut miles runAvg speedWind from/ knotsBaromVisibWave heightAir tempDewpointWater temp
2018-Jan-07 05:24N 33°52' E 134°52'512.6
2018-Jan-07 05:00N 33°56' E 134°55'612.3
2018-Jan-07 04:31N 34°01' E 134°58'612.0
2018-Jan-07 04:00N 34°07' E 135°02'510.4
2018-Jan-07 03:30N 34°09' E 135°08'4 7.5
2018-Jan-07 03:00N 34°09' E 135°12'0 0.0
2018-Jan-06 23:38N 34°09' E 135°12'0 1.3
2018-Jan-06 23:31N 34°09' E 135°12'2 4.2
2018-Jan-06 22:59N 34°09' E 135°09'0 0.0
2018-Jan-06 22:29N 34°09' E 135°09'0 0.0
2018-Jan-06 21:59N 34°09' E 135°09'0 0.0
2018-Jan-06 21:29N 34°09' E 135°09'0 0.0
2018-Jan-06 20:59N 34°09' E 135°09'0 0.0
2018-Jan-06 20:29N 34°09' E 135°09'0 0.0
2018-Jan-06 19:59N 34°09' E 135°09'0 0.0
2018-Jan-06 19:29N 34°09' E 135°09'0 0.0
2018-Jan-06 18:59N 34°09' E 135°09'0 0.0
2018-Jan-06 18:29N 34°09' E 135°09'0 0.0
2018-Jan-06 17:59N 34°09' E 135°09'0 0.0
2018-Jan-06 17:29N 34°09' E 135°09'0 0.1
2018-Jan-06 16:59N 34°09' E 135°09'0 0.0
2018-Jan-06 16:29N 34°09' E 135°09'0 0.0
2018-Jan-06 15:59N 34°09' E 135°09'0 0.0
2018-Jan-06 15:29N 34°09' E 135°09'0 0.0
2018-Jan-06 14:59N 34°09' E 135°09'0 0.0
2018-Jan-06 14:29N 34°09' E 135°09'0 0.0
2018-Jan-06 13:59N 34°09' E 135°09'0 0.0
2018-Jan-06 13:29N 34°09' E 135°09'0 0.0
2018-Jan-06 12:59N 34°09' E 135°09'0 0.0
2018-Jan-06 12:29N 34°09' E 135°09'0 0.0
2018-Jan-06 11:59N 34°09' E 135°09'0 0.0
2018-Jan-06 11:29N 34°09' E 135°09'3 5.6
2018-Jan-06 11:00N 34°08' E 135°06'510.6
2018-Jan-06 10:30N 34°04' E 135°03'611.8
2018-Jan-06 10:00N 33°58' E 135°02'611.5
2018-Jan-06 09:27N 33°51' E 135°02'511.6
2018-Jan-06 09:00N 33°47' E 135°06'19212.0
2018-Jan-05 16:57N 34°30' E 138°52'512.4
2018-Jan-05 16:30N 34°32' E 138°58'612.0
2018-Jan-05 15:59N 34°37' E 139°03'612.1
2018-Jan-05 15:30N 34°41' E 139°07'713.1
2018-Jan-05 15:00N 34°47' E 139°12'813.4
2018-Jan-05 14:23N 34°53' E 139°19'613.2
2018-Jan-05 13:58N 34°56' E 139°25'613.1
2018-Jan-05 13:30N 34°60' E 139°31'612.9
2018-Jan-05 13:00N 35°03' E 139°37'712.9
2018-Jan-05 12:30N 35°08' E 139°43'613.1
2018-Jan-05 12:00N 35°14' E 139°46'612.3
2018-Jan-05 11:30N 35°19' E 139°43'611.5
2018-Jan-05 11:01N 35°24' E 139°40'1 2.2
2018-Jan-05 10:30N 35°25' E 139°38'0 0.0
2018-Jan-05 10:00N 35°25' E 139°38'0 0.0
2018-Jan-05 09:30N 35°25' E 139°38'0 0.0
2018-Jan-05 09:00N 35°25' E 139°38'0 0.0
2018-Jan-05 08:30N 35°25' E 139°38'0 0.0
2018-Jan-05 08:00N 35°25' E 139°38'0 0.0
2018-Jan-05 07:30N 35°25' E 139°38'0 0.0
2018-Jan-05 07:00N 35°25' E 139°38'0 0.0
2018-Jan-05 06:30N 35°25' E 139°38'0 0.0
2018-Jan-05 06:00N 35°25' E 139°38'0 0.0
2018-Jan-05 05:30N 35°25' E 139°38'0 0.0
2018-Jan-05 05:00N 35°25' E 139°38'0 0.1
2018-Jan-05 04:30N 35°25' E 139°38'3 5.8
2018-Jan-05 04:00N 35°22' E 139°41'0 0.7
2018-Jan-05 03:29N 35°22' E 139°41'0 0.0
2018-Jan-05 02:59N 35°22' E 139°41'0 0.0
2018-Jan-05 02:29N 35°22' E 139°41'0 0.0
2018-Jan-05 01:59N 35°22' E 139°41'0 0.0
2018-Jan-05 01:29N 35°22' E 139°41'0 0.0
2018-Jan-05 00:59N 35°22' E 139°41'0 0.0
2018-Jan-05 00:29N 35°22' E 139°41'0 0.0
2018-Jan-04 23:59N 35°22' E 139°41'0 0.0
2018-Jan-04 23:29N 35°22' E 139°41'0 0.0
2018-Jan-04 22:59N 35°22' E 139°41'0 0.0
2018-Jan-04 22:29N 35°22' E 139°41'0 0.0
2018-Jan-04 21:59N 35°22' E 139°41'0 0.0
2018-Jan-04 21:29N 35°22' E 139°41'0 0.0
2018-Jan-04 20:59N 35°22' E 139°41'0 0.0
2018-Jan-04 20:29N 35°22' E 139°41'0 0.1
2018-Jan-04 19:59N 35°22' E 139°41'0 0.0
2018-Jan-04 19:29N 35°22' E 139°41'0 0.0
2018-Jan-04 18:59N 35°22' E 139°41'0 0.1
2018-Jan-04 18:29N 35°22' E 139°41'0 0.0
2018-Jan-04 17:59N 35°22' E 139°41'0 0.1
2018-Jan-04 17:29N 35°22' E 139°41'0 0.0
2018-Jan-04 16:59N 35°22' E 139°41'0 0.0
2018-Jan-04 16:29N 35°22' E 139°41'0 0.0
2018-Jan-04 15:59N 35°22' E 139°41'0 0.0
2018-Jan-04 15:29N 35°22' E 139°41'0 0.0
2018-Jan-04 14:59N 35°22' E 139°41'0 0.0
2018-Jan-04 14:29N 35°22' E 139°41'0 0.0
2018-Jan-04 13:56N 35°22' E 139°41'0 0.0
2018-Jan-04 13:29N 35°22' E 139°41'0 0.0
2018-Jan-04 12:58N 35°22' E 139°41'0 0.0
2018-Jan-04 12:28N 35°22' E 139°41'0 0.1
2018-Jan-04 11:58N 35°22' E 139°41'0 0.0
2018-Jan-04 11:28N 35°22' E 139°41'0 0.1
2018-Jan-04 10:58N 35°22' E 139°41'0 0.0
2018-Jan-04 10:28N 35°22' E 139°41'0 0.0
2018-Jan-04 09:55N 35°22' E 139°41'0 0.0
2018-Jan-04 09:28N 35°22' E 139°41'0 0.0
2018-Jan-04 08:58N 35°22' E 139°41'0 0.0
2018-Jan-04 08:28N 35°22' E 139°41'0 0.0
2018-Jan-04 07:58N 35°22' E 139°41'0 0.0
2018-Jan-04 07:28N 35°22' E 139°41'0 0.0
2018-Jan-04 06:58N 35°22' E 139°41'0 0.0
2018-Jan-04 06:28N 35°22' E 139°41'0 0.1
2018-Jan-04 05:58N 35°22' E 139°41'0 0.1
2018-Jan-04 05:28N 35°22' E 139°41'0 0.0
2018-Jan-04 04:58N 35°22' E 139°41'0 0.0
2018-Jan-04 04:28N 35°22' E 139°41'0 0.0
2018-Jan-04 03:58N 35°22' E 139°41'0 0.0
2018-Jan-04 03:28N 35°22' E 139°41'0 0.0
2018-Jan-04 02:58N 35°22' E 139°41'0 0.0
2018-Jan-04 02:28N 35°22' E 139°41'0 0.1
2018-Jan-04 01:58N 35°22' E 139°41'0 0.1
2018-Jan-04 01:25N 35°22' E 139°41'0 0.1
2018-Jan-04 00:58N 35°22' E 139°41'0 0.1
2018-Jan-04 00:28N 35°22' E 139°41'0 0.1
2018-Jan-03 23:58N 35°22' E 139°41'0 0.0
2018-Jan-03 23:28N 35°22' E 139°41'0 0.0
2018-Jan-03 22:58N 35°22' E 139°41'0 0.0
2018-Jan-03 22:28N 35°22' E 139°41'0 0.0
2018-Jan-03 21:55N 35°22' E 139°41'0 0.0
2018-Jan-03 21:28N 35°22' E 139°41'0 0.0
2018-Jan-03 20:58N 35°22' E 139°41'0 0.0
2018-Jan-03 20:28N 35°22' E 139°41'0 0.1
2018-Jan-03 19:58N 35°22' E 139°41'0 0.1
2018-Jan-03 19:28N 35°22' E 139°41'0 0.0
2018-Jan-03 18:58N 35°22' E 139°41'0 0.1
2018-Jan-03 18:28N 35°22' E 139°41'0 0.0
2018-Jan-03 17:58N 35°22' E 139°41'0 0.0
2018-Jan-03 17:28N 35°22' E 139°41'0 0.1
2018-Jan-03 16:58N 35°22' E 139°41'0 0.0
2018-Jan-03 16:28N 35°22' E 139°41'0 0.0
2018-Jan-03 15:58N 35°22' E 139°41'0 0.0
2018-Jan-03 15:28N 35°22' E 139°41'0 0.0
2018-Jan-03 14:58N 35°22' E 139°41'0 0.0
2018-Jan-03 14:28N 35°22' E 139°41'0 0.1
2018-Jan-03 13:58N 35°22' E 139°41'0 0.2
2018-Jan-03 13:28N 35°22' E 139°41'0 0.0
2018-Jan-03 12:58N 35°22' E 139°41'0 0.0
2018-Jan-03 12:28N 35°22' E 139°41'0 0.0
2018-Jan-03 11:55N 35°22' E 139°41'0 0.0
2018-Jan-03 11:28N 35°22' E 139°41'0 0.0
2018-Jan-03 10:52N 35°22' E 139°41'0 0.0
2018-Jan-03 10:28N 35°22' E 139°41'0 0.0
2018-Jan-03 09:58N 35°22' E 139°41'0 0.0
2018-Jan-03 09:28N 35°22' E 139°41'0 0.0
2018-Jan-03 08:58N 35°22' E 139°41'0 0.0
2018-Jan-03 08:28N 35°22' E 139°41'0 0.0
2018-Jan-03 07:58N 35°22' E 139°41'0 0.1
2018-Jan-03 07:28N 35°22' E 139°41'0 0.1
2018-Jan-03 06:58N 35°22' E 139°41'1 2.0
2018-Jan-03 06:30N 35°21' E 139°42'611.5
2018-Jan-03 06:00N 35°17' E 139°46'611.6
2018-Jan-03 05:30N 35°11' E 139°46'612.0
2018-Jan-03 05:00N 35°05' E 139°44'612.2
2018-Jan-03 04:30N 35°01' E 139°38'612.7
2018-Jan-03 04:00N 34°57' E 139°32'1313.1
2018-Jan-03 03:01N 34°50' E 139°19'014.6
2018-Jan-03 03:00N 34°50' E 139°19'713.4
2018-Jan-03 02:29N 34°44' E 139°14'612.7
2018-Jan-03 02:00N 34°39' E 139°09'713.0
2018-Jan-03 01:28N 34°34' E 139°04'612.9
2018-Jan-03 01:00N 34°30' E 138°58'1513.3
2018-Jan-02 23:54N 34°24' E 138°42'513.2
2018-Jan-02 23:30N 34°22' E 138°36'712.6
2018-Jan-02 22:55N 34°19' E 138°29'512.4
2018-Jan-02 22:30N 34°17' E 138°23'32611.5
2018-Jan-01 18:10N 33°23' E 131°55'413.5
2018-Jan-01 17:51N 33°27' E 131°53'514.0
2018-Jan-01 17:31N 33°31' E 131°51'3212.8
2018-Jan-01 15:00N 33°50' E 131°19'714.0
2018-Jan-01 14:30N 33°52' E 131°11'713.9
2018-Jan-01 14:00N 33°56' E 131°04'611.2
2018-Jan-01 13:31N 33°58' E 130°58'5 9.0
2018-Jan-01 13:00N 33°54' E 130°55'1010.1
2018-Jan-01 12:00N 34°03' E 130°48'713.1
2018-Jan-01 11:30N 34°08' E 130°43'713.1
2018-Jan-01 11:00N 34°13' E 130°38'713.2
2018-Jan-01 10:30N 34°18' E 130°33'713.3
2018-Jan-01 10:01N 34°23' E 130°28'713.4
2018-Jan-01 09:30N 34°28' E 130°22'  
Track history (hours):
 
Tides and Currents Weather Stations Pressure Air Temp Water Temp Dewpoint Dewpoint Depression Visibility Wind Speed Wind Dir Waves Ship Positions

Blue Phoenix

Last reported at 2018-Jan-07 05:24 UTC. Time now 2018-Jan-21 07:06 UTC.
Position N 33°52' E 134°52'.
Warning: this ship's position is 14 days out of date.

Length 96 m; draft 6.1 m.

Type: Ship (hazmat cat D). MMSI: 353874000.

Date/timePositionNaut miles runAvg speedWind from/ knotsBaromVisibWave heightAir tempDewpointWater temp
2018-Jan-07 05:24N 33°52' E 134°52'512.6
2018-Jan-07 05:00N 33°56' E 134°55'612.3
2018-Jan-07 04:31N 34°01' E 134°58'612.0
2018-Jan-07 04:00N 34°07' E 135°02'510.4
2018-Jan-07 03:30N 34°09' E 135°08'4 7.5
2018-Jan-07 03:00N 34°09' E 135°12'0 0.0
2018-Jan-06 23:38N 34°09' E 135°12'0 1.3
2018-Jan-06 23:31N 34°09' E 135°12'2 4.2
2018-Jan-06 22:59N 34°09' E 135°09'0 0.0
2018-Jan-06 22:29N 34°09' E 135°09'0 0.0
2018-Jan-06 21:59N 34°09' E 135°09'0 0.0
2018-Jan-06 21:29N 34°09' E 135°09'0 0.0
2018-Jan-06 20:59N 34°09' E 135°09'0 0.0
2018-Jan-06 20:29N 34°09' E 135°09'0 0.0
2018-Jan-06 19:59N 34°09' E 135°09'0 0.0
2018-Jan-06 19:29N 34°09' E 135°09'0 0.0
2018-Jan-06 18:59N 34°09' E 135°09'0 0.0
2018-Jan-06 18:29N 34°09' E 135°09'0 0.0
2018-Jan-06 17:59N 34°09' E 135°09'0 0.0
2018-Jan-06 17:29N 34°09' E 135°09'0 0.1
2018-Jan-06 16:59N 34°09' E 135°09'0 0.0
2018-Jan-06 16:29N 34°09' E 135°09'0 0.0
2018-Jan-06 15:59N 34°09' E 135°09'0 0.0
2018-Jan-06 15:29N 34°09' E 135°09'0 0.0
2018-Jan-06 14:59N 34°09' E 135°09'0 0.0
2018-Jan-06 14:29N 34°09' E 135°09'0 0.0
2018-Jan-06 13:59N 34°09' E 135°09'0 0.0
2018-Jan-06 13:29N 34°09' E 135°09'0 0.0
2018-Jan-06 12:59N 34°09' E 135°09'0 0.0
2018-Jan-06 12:29N 34°09' E 135°09'0 0.0
2018-Jan-06 11:59N 34°09' E 135°09'0 0.0
2018-Jan-06 11:29N 34°09' E 135°09'3 5.6
2018-Jan-06 11:00N 34°08' E 135°06'510.6
2018-Jan-06 10:30N 34°04' E 135°03'611.8
2018-Jan-06 10:00N 33°58' E 135°02'611.5
2018-Jan-06 09:27N 33°51' E 135°02'511.6
2018-Jan-06 09:00N 33°47' E 135°06'19212.0
2018-Jan-05 16:57N 34°30' E 138°52'512.4
2018-Jan-05 16:30N 34°32' E 138°58'612.0
2018-Jan-05 15:59N 34°37' E 139°03'612.1
2018-Jan-05 15:30N 34°41' E 139°07'713.1
2018-Jan-05 15:00N 34°47' E 139°12'813.4
2018-Jan-05 14:23N 34°53' E 139°19'613.2
2018-Jan-05 13:58N 34°56' E 139°25'613.1
2018-Jan-05 13:30N 34°60' E 139°31'612.9
2018-Jan-05 13:00N 35°03' E 139°37'712.9
2018-Jan-05 12:30N 35°08' E 139°43'613.1
2018-Jan-05 12:00N 35°14' E 139°46'612.3
2018-Jan-05 11:30N 35°19' E 139°43'611.5
2018-Jan-05 11:01N 35°24' E 139°40'1 2.2
2018-Jan-05 10:30N 35°25' E 139°38'0 0.0
2018-Jan-05 10:00N 35°25' E 139°38'0 0.0
2018-Jan-05 09:30N 35°25' E 139°38'0 0.0
2018-Jan-05 09:00N 35°25' E 139°38'0 0.0
2018-Jan-05 08:30N 35°25' E 139°38'0 0.0
2018-Jan-05 08:00N 35°25' E 139°38'0 0.0
2018-Jan-05 07:30N 35°25' E 139°38'0 0.0
2018-Jan-05 07:00N 35°25' E 139°38'0 0.0
2018-Jan-05 06:30N 35°25' E 139°38'0 0.0
2018-Jan-05 06:00N 35°25' E 139°38'0 0.0
2018-Jan-05 05:30N 35°25' E 139°38'0 0.0
2018-Jan-05 05:00N 35°25' E 139°38'0 0.1
2018-Jan-05 04:30N 35°25' E 139°38'3 5.8
2018-Jan-05 04:00N 35°22' E 139°41'0 0.7
2018-Jan-05 03:29N 35°22' E 139°41'0 0.0
2018-Jan-05 02:59N 35°22' E 139°41'0 0.0
2018-Jan-05 02:29N 35°22' E 139°41'0 0.0
2018-Jan-05 01:59N 35°22' E 139°41'0 0.0
2018-Jan-05 01:29N 35°22' E 139°41'0 0.0
2018-Jan-05 00:59N 35°22' E 139°41'0 0.0
2018-Jan-05 00:29N 35°22' E 139°41'0 0.0
2018-Jan-04 23:59N 35°22' E 139°41'0 0.0
2018-Jan-04 23:29N 35°22' E 139°41'0 0.0
2018-Jan-04 22:59N 35°22' E 139°41'0 0.0
2018-Jan-04 22:29N 35°22' E 139°41'0 0.0
2018-Jan-04 21:59N 35°22' E 139°41'0 0.0
2018-Jan-04 21:29N 35°22' E 139°41'0 0.0
2018-Jan-04 20:59N 35°22' E 139°41'0 0.0
2018-Jan-04 20:29N 35°22' E 139°41'0 0.1
2018-Jan-04 19:59N 35°22' E 139°41'0 0.0
2018-Jan-04 19:29N 35°22' E 139°41'0 0.0
2018-Jan-04 18:59N 35°22' E 139°41'0 0.1
2018-Jan-04 18:29N 35°22' E 139°41'0 0.0
2018-Jan-04 17:59N 35°22' E 139°41'0 0.1
2018-Jan-04 17:29N 35°22' E 139°41'0 0.0
2018-Jan-04 16:59N 35°22' E 139°41'0 0.0
2018-Jan-04 16:29N 35°22' E 139°41'0 0.0
2018-Jan-04 15:59N 35°22' E 139°41'0 0.0
2018-Jan-04 15:29N 35°22' E 139°41'0 0.0
2018-Jan-04 14:59N 35°22' E 139°41'0 0.0
2018-Jan-04 14:29N 35°22' E 139°41'0 0.0
2018-Jan-04 13:56N 35°22' E 139°41'0 0.0
2018-Jan-04 13:29N 35°22' E 139°41'0 0.0
2018-Jan-04 12:58N 35°22' E 139°41'0 0.0
2018-Jan-04 12:28N 35°22' E 139°41'0 0.1
2018-Jan-04 11:58N 35°22' E 139°41'0 0.0
2018-Jan-04 11:28N 35°22' E 139°41'0 0.1
2018-Jan-04 10:58N 35°22' E 139°41'0 0.0
2018-Jan-04 10:28N 35°22' E 139°41'0 0.0
2018-Jan-04 09:55N 35°22' E 139°41'0 0.0
2018-Jan-04 09:28N 35°22' E 139°41'0 0.0
2018-Jan-04 08:58N 35°22' E 139°41'0 0.0
2018-Jan-04 08:28N 35°22' E 139°41'0 0.0
2018-Jan-04 07:58N 35°22' E 139°41'0 0.0
2018-Jan-04 07:28N 35°22' E 139°41'0 0.0
2018-Jan-04 06:58N 35°22' E 139°41'0 0.0
2018-Jan-04 06:28N 35°22' E 139°41'0 0.1
2018-Jan-04 05:58N 35°22' E 139°41'0 0.1
2018-Jan-04 05:28N 35°22' E 139°41'0 0.0
2018-Jan-04 04:58N 35°22' E 139°41'0 0.0
2018-Jan-04 04:28N 35°22' E 139°41'0 0.0
2018-Jan-04 03:58N 35°22' E 139°41'0 0.0
2018-Jan-04 03:28N 35°22' E 139°41'0 0.0
2018-Jan-04 02:58N 35°22' E 139°41'0 0.0
2018-Jan-04 02:28N 35°22' E 139°41'0 0.1
2018-Jan-04 01:58N 35°22' E 139°41'0 0.1
2018-Jan-04 01:25N 35°22' E 139°41'0 0.1
2018-Jan-04 00:58N 35°22' E 139°41'0 0.1
2018-Jan-04 00:28N 35°22' E 139°41'0 0.1
2018-Jan-03 23:58N 35°22' E 139°41'0 0.0
2018-Jan-03 23:28N 35°22' E 139°41'0 0.0
2018-Jan-03 22:58N 35°22' E 139°41'0 0.0
2018-Jan-03 22:28N 35°22' E 139°41'0 0.0
2018-Jan-03 21:55N 35°22' E 139°41'0 0.0
2018-Jan-03 21:28N 35°22' E 139°41'0 0.0
2018-Jan-03 20:58N 35°22' E 139°41'0 0.0
2018-Jan-03 20:28N 35°22' E 139°41'0 0.1
2018-Jan-03 19:58N 35°22' E 139°41'0 0.1
2018-Jan-03 19:28N 35°22' E 139°41'0 0.0
2018-Jan-03 18:58N 35°22' E 139°41'0 0.1
2018-Jan-03 18:28N 35°22' E 139°41'0 0.0
2018-Jan-03 17:58N 35°22' E 139°41'0 0.0
2018-Jan-03 17:28N 35°22' E 139°41'0 0.1
2018-Jan-03 16:58N 35°22' E 139°41'0 0.0
2018-Jan-03 16:28N 35°22' E 139°41'0 0.0
2018-Jan-03 15:58N 35°22' E 139°41'0 0.0
2018-Jan-03 15:28N 35°22' E 139°41'0 0.0
2018-Jan-03 14:58N 35°22' E 139°41'0 0.0
2018-Jan-03 14:28N 35°22' E 139°41'0 0.1
2018-Jan-03 13:58N 35°22' E 139°41'0 0.2
2018-Jan-03 13:28N 35°22' E 139°41'0 0.0
2018-Jan-03 12:58N 35°22' E 139°41'0 0.0
2018-Jan-03 12:28N 35°22' E 139°41'0 0.0
2018-Jan-03 11:55N 35°22' E 139°41'0 0.0
2018-Jan-03 11:28N 35°22' E 139°41'0 0.0
2018-Jan-03 10:52N 35°22' E 139°41'0 0.0
2018-Jan-03 10:28N 35°22' E 139°41'0 0.0
2018-Jan-03 09:58N 35°22' E 139°41'0 0.0
2018-Jan-03 09:28N 35°22' E 139°41'0 0.0
2018-Jan-03 08:58N 35°22' E 139°41'0 0.0
2018-Jan-03 08:28N 35°22' E 139°41'0 0.0
2018-Jan-03 07:58N 35°22' E 139°41'0 0.1
2018-Jan-03 07:28N 35°22' E 139°41'0 0.1
2018-Jan-03 06:58N 35°22' E 139°41'1 2.0
2018-Jan-03 06:30N 35°21' E 139°42'611.5
2018-Jan-03 06:00N 35°17' E 139°46'611.6
2018-Jan-03 05:30N 35°11' E 139°46'612.0
2018-Jan-03 05:00N 35°05' E 139°44'612.2
2018-Jan-03 04:30N 35°01' E 139°38'612.7
2018-Jan-03 04:00N 34°57' E 139°32'1313.1
2018-Jan-03 03:01N 34°50' E 139°19'014.6
2018-Jan-03 03:00N 34°50' E 139°19'713.4
2018-Jan-03 02:29N 34°44' E 139°14'612.7
2018-Jan-03 02:00N 34°39' E 139°09'713.0
2018-Jan-03 01:28N 34°34' E 139°04'612.9
2018-Jan-03 01:00N 34°30' E 138°58'1513.3
2018-Jan-02 23:54N 34°24' E 138°42'513.2
2018-Jan-02 23:30N 34°22' E 138°36'712.6
2018-Jan-02 22:55N 34°19' E 138°29'512.4
2018-Jan-02 22:30N 34°17' E 138°23'32611.5
2018-Jan-01 18:10N 33°23' E 131°55'413.5
2018-Jan-01 17:51N 33°27' E 131°53'514.0
2018-Jan-01 17:31N 33°31' E 131°51'3212.8
2018-Jan-01 15:00N 33°50' E 131°19'714.0
2018-Jan-01 14:30N 33°52' E 131°11'713.9
2018-Jan-01 14:00N 33°56' E 131°04'611.2
2018-Jan-01 13:31N 33°58' E 130°58'5 9.0
2018-Jan-01 13:00N 33°54' E 130°55'1010.1
2018-Jan-01 12:00N 34°03' E 130°48'713.1
2018-Jan-01 11:30N 34°08' E 130°43'713.1
2018-Jan-01 11:00N 34°13' E 130°38'713.2
2018-Jan-01 10:30N 34°18' E 130°33'713.3
2018-Jan-01 10:01N 34°23' E 130°28'713.4
2018-Jan-01 09:30N 34°28' E 130°22'  

Dump ship's entire track history